createdAt,value
2022-11-10T00:01:34.875Z,8.50
2022-11-10T00:06:56.977Z,12.93
2022-11-10T00:12:19.996Z,10.07
2022-11-10T00:17:42.033Z,7.40
2022-11-10T00:23:04.429Z,9.55
2022-11-10T00:28:26.895Z,12.68
2022-11-10T00:33:48.513Z,11.73
2022-11-10T00:39:10.896Z,9.25
2022-11-10T00:49:54.646Z,9.97
2022-11-10T00:55:16.870Z,10.10
2022-11-10T01:00:38.822Z,17.73
2022-11-10T01:06:09.471Z,12.60
2022-11-10T01:11:31.421Z,13.63
2022-11-10T01:16:53.302Z,15.30
2022-11-10T01:22:15.569Z,13.35
2022-11-10T01:27:37.802Z,15.18
2022-11-10T01:32:59.570Z,9.00
2022-11-10T01:38:22.135Z,10.93
2022-11-10T01:43:44.174Z,15.40
2022-11-10T01:49:07.071Z,10.27
2022-11-10T01:54:46.663Z,8.43
2022-11-10T02:00:10.823Z,8.90
2022-11-10T02:05:33.481Z,8.85
2022-11-10T02:16:18.506Z,10.48
2022-11-10T02:21:40.534Z,14.85
2022-11-10T02:27:03.098Z,8.83
2022-11-10T02:37:46.523Z,8.60
2022-11-10T02:43:15.510Z,10.10
2022-11-10T02:48:39.120Z,15.52
2022-11-10T02:54:01.374Z,18.75
2022-11-10T02:59:23.582Z,17.92
2022-11-10T03:04:45.835Z,11.63
2022-11-10T03:10:08.286Z,12.25
2022-11-10T03:15:30.253Z,17.08
2022-11-10T03:20:51.914Z,13.93
2022-11-10T03:26:13.913Z,18.77
2022-11-10T03:31:35.742Z,14.83
2022-11-10T03:36:57.510Z,10.73
2022-11-10T03:42:19.739Z,11.40
2022-11-10T03:47:44.831Z,10.15
2022-11-10T03:53:06.624Z,8.55
2022-11-10T03:58:28.361Z,10.65
2022-11-10T04:03:57.689Z,8.07
2022-11-10T04:09:19.344Z,7.67
2022-11-10T04:14:41.277Z,16.57
2022-11-10T04:20:03.862Z,9.05
2022-11-10T04:25:26.092Z,14.18
2022-11-10T04:30:49.305Z,7.70
2022-11-10T04:36:13.383Z,10.73
2022-11-10T04:41:35.634Z,15.15
2022-11-10T04:46:57.680Z,11.68
2022-11-10T04:52:19.602Z,10.43
2022-11-10T04:57:43.238Z,12.93
2022-11-10T05:03:07.964Z,10.05
2022-11-10T05:08:29.894Z,11.60
2022-11-10T05:13:52.048Z,14.93
2022-11-10T05:19:13.793Z,10.17
2022-11-10T05:24:35.573Z,7.87
2022-11-10T05:29:57.623Z,18.42
2022-11-10T05:35:19.285Z,23.67
2022-11-10T05:40:40.953Z,24.13
2022-11-10T05:46:03.006Z,21.27
2022-11-10T05:51:25.109Z,30.50
2022-11-10T05:56:47.586Z,34.20
2022-11-10T06:02:09.541Z,36.70
2022-11-10T06:07:31.440Z,39.13
2022-11-10T06:12:54.683Z,40.50
2022-11-10T06:18:16.329Z,37.35
2022-11-10T06:23:37.977Z,32.88
2022-11-10T06:29:00.210Z,28.42
2022-11-10T06:34:23.119Z,43.78
2022-11-10T06:39:44.877Z,26.25
2022-11-10T06:45:07.971Z,23.50
2022-11-10T06:50:30.988Z,25.95
2022-11-10T06:55:53.143Z,30.30
2022-11-10T07:01:17.649Z,46.42
2022-11-10T07:06:43.692Z,49.35
2022-11-10T07:12:06.252Z,48.33
2022-11-10T07:17:28.349Z,45.85
2022-11-10T07:22:50.337Z,54.35
2022-11-10T07:28:12.987Z,51.97
2022-11-10T07:33:35.440Z,51.55
2022-11-10T07:38:57.304Z,60.07
2022-11-10T07:44:22.463Z,53.27
2022-11-10T07:49:46.227Z,41.25
2022-11-10T07:55:08.286Z,66.63
2022-11-10T08:00:30.295Z,44.97
2022-11-10T08:05:52.417Z,39.80
2022-11-10T08:11:14.770Z,31.83
2022-11-10T08:16:36.383Z,37.72
2022-11-10T08:21:58.369Z,35.07
2022-11-10T08:27:20.383Z,30.70
2022-11-10T08:38:11.790Z,29.70
2022-11-10T08:43:33.973Z,23.77
2022-11-10T08:48:55.920Z,29.77
2022-11-10T08:54:17.714Z,19.70
2022-11-10T08:59:39.453Z,15.23
2022-11-10T09:05:01.520Z,10.47
2022-11-10T09:10:23.966Z,7.03
2022-11-10T09:15:45.929Z,9.43
2022-11-10T09:21:08.426Z,8.88
2022-11-10T09:26:31.643Z,10.43
2022-11-10T09:31:53.719Z,6.40
2022-11-10T09:37:15.674Z,9.43
2022-11-10T09:42:40.824Z,6.22
2022-11-10T09:48:13.067Z,20.98
2022-11-10T09:53:41.814Z,32.40
2022-11-10T09:59:14.419Z,12.05
2022-11-10T10:05:07.796Z,8.82
2022-11-10T10:10:37.558Z,7.57
2022-11-10T10:16:05.218Z,10.63
2022-11-10T10:21:48.746Z,8.60
2022-11-10T10:27:19.458Z,10.82
2022-11-10T10:32:41.256Z,7.15
2022-11-10T10:38:05.756Z,10.95
2022-11-10T10:43:27.767Z,7.70
2022-11-10T10:49:32.165Z,9.20
2022-11-10T10:55:01.154Z,13.20
2022-11-10T11:00:23.887Z,5.38
2022-11-10T11:11:26.781Z,6.60
2022-11-10T11:17:13.402Z,8.20
2022-11-10T11:22:35.485Z,7.75
2022-11-10T11:28:22.340Z,10.20
2022-11-10T11:34:13.583Z,7.97
2022-11-10T11:40:01.356Z,7.07
2022-11-10T11:45:58.757Z,6.75
2022-11-10T11:51:31.140Z,9.20
2022-11-10T11:56:56.950Z,8.50
2022-11-10T12:02:52.492Z,10.02
2022-11-10T12:08:41.571Z,9.80
2022-11-10T12:14:27.570Z,6.90
2022-11-10T12:20:14.853Z,7.68
2022-11-10T12:25:58.608Z,6.65
2022-11-10T12:31:25.164Z,6.82
2022-11-10T12:36:48.994Z,9.63
2022-11-10T12:42:21.364Z,10.90
2022-11-10T12:47:45.538Z,6.72
2022-11-10T12:53:20.372Z,9.65
2022-11-10T12:58:42.758Z,11.63
2022-11-10T13:09:34.077Z,7.80
2022-11-10T13:14:55.900Z,11.38
2022-11-10T13:20:50.991Z,8.00
2022-11-10T13:26:45.834Z,5.85
2022-11-10T13:32:13.630Z,8.18
2022-11-10T13:37:35.232Z,6.15
2022-11-10T13:43:00.051Z,8.17
2022-11-10T13:48:36.853Z,7.10
2022-11-10T13:54:45.100Z,8.73
2022-11-10T14:00:37.272Z,9.50
2022-11-10T14:06:05.192Z,6.88
2022-11-10T14:11:37.167Z,11.68
2022-11-10T14:16:59.818Z,7.10
2022-11-10T14:22:33.260Z,8.02
2022-11-10T14:27:58.401Z,6.70
2022-11-10T14:33:23.103Z,8.32
2022-11-10T14:38:45.631Z,8.65
2022-11-10T14:44:13.653Z,19.38
2022-11-10T14:49:35.715Z,7.47
2022-11-10T14:54:57.885Z,10.75
2022-11-10T15:00:24.022Z,10.73
2022-11-10T15:05:47.865Z,9.43
2022-11-10T15:11:37.662Z,14.65
2022-11-10T15:17:01.270Z,9.20
2022-11-10T15:22:30.978Z,10.60
2022-11-10T15:28:02.320Z,9.20
2022-11-10T15:33:27.801Z,8.07
2022-11-10T15:39:12.081Z,10.73
2022-11-10T15:44:33.846Z,10.90
2022-11-10T15:49:55.534Z,9.07
2022-11-10T15:55:24.564Z,12.90
2022-11-10T16:00:47.313Z,14.13
2022-11-10T16:06:18.279Z,7.95
2022-11-10T16:11:43.553Z,9.50
2022-11-10T16:17:06.270Z,11.27
2022-11-10T16:22:31.836Z,8.25
2022-11-10T16:27:53.793Z,10.57
2022-11-10T16:33:17.481Z,7.33
2022-11-10T16:38:39.894Z,8.43
2022-11-10T16:44:01.822Z,8.93
2022-11-10T16:49:26.965Z,8.00
2022-11-10T16:54:48.752Z,7.57
2022-11-10T17:00:11.139Z,9.07
2022-11-10T17:05:35.050Z,10.52
2022-11-10T17:10:57.494Z,10.52
2022-11-10T17:16:28.865Z,15.82
2022-11-10T17:21:53.300Z,12.33
2022-11-10T17:27:15.644Z,17.80
2022-11-10T17:33:03.454Z,17.23
2022-11-10T17:38:30.852Z,11.43
2022-11-10T17:43:53.042Z,14.80
2022-11-10T17:49:14.740Z,13.63
2022-11-10T17:54:36.604Z,18.08
2022-11-10T17:59:58.876Z,14.25
2022-11-10T18:05:21.001Z,14.10
2022-11-10T18:10:49.257Z,17.27
2022-11-10T18:16:13.441Z,18.25
2022-11-10T18:21:34.964Z,12.07
2022-11-10T18:26:57.664Z,13.23
2022-11-10T18:37:43.740Z,17.70
2022-11-10T18:43:07.721Z,12.95
2022-11-10T18:48:34.719Z,11.30
2022-11-10T18:53:59.027Z,14.60
2022-11-10T18:59:20.777Z,12.23
2022-11-10T19:04:42.838Z,15.70
2022-11-10T19:10:06.372Z,10.93
2022-11-10T19:20:50.365Z,13.07
2022-11-10T19:26:22.573Z,10.53
2022-11-10T19:31:45.576Z,8.27
2022-11-10T19:37:07.182Z,18.90
2022-11-10T19:42:29.083Z,9.48
2022-11-10T19:47:51.180Z,12.20
2022-11-10T19:53:13.128Z,11.98
2022-11-10T19:58:39.204Z,10.63
2022-11-10T20:04:01.385Z,8.98
2022-11-10T20:09:23.458Z,12.82
2022-11-10T20:14:45.297Z,12.50
2022-11-10T20:20:07.659Z,11.20
2022-11-10T20:25:31.973Z,10.75
2022-11-10T20:30:57.105Z,9.50
2022-11-10T20:36:30.821Z,16.42
2022-11-10T20:41:52.829Z,15.25
2022-11-10T20:47:15.415Z,11.75
2022-11-10T20:57:58.936Z,10.75
2022-11-10T21:03:22.909Z,12.07
2022-11-10T21:08:44.818Z,12.30
2022-11-10T21:14:06.539Z,9.97
2022-11-10T21:19:32.845Z,12.43
2022-11-10T21:25:00.575Z,11.23
2022-11-10T21:30:22.557Z,16.23
2022-11-10T21:35:44.925Z,13.60
2022-11-10T21:41:06.202Z,12.35
2022-11-10T21:51:50.569Z,15.93
2022-11-10T21:57:13.113Z,11.35
2022-11-10T22:07:57.399Z,9.35
2022-11-10T22:13:20.639Z,12.70
2022-11-10T22:18:43.450Z,14.32
2022-11-10T22:24:05.403Z,16.13
2022-11-10T22:29:31.684Z,10.37
2022-11-10T22:34:54.459Z,9.23
2022-11-10T22:45:37.906Z,14.82
2022-11-10T22:51:02.531Z,8.90
2022-11-10T22:56:25.241Z,10.40
2022-11-10T23:01:47.484Z,10.70
2022-11-10T23:07:09.949Z,14.00
2022-11-10T23:12:33.989Z,7.72
2022-11-10T23:17:56.290Z,12.03
2022-11-10T23:23:18.567Z,7.55
2022-11-10T23:28:41.053Z,9.60
2022-11-10T23:34:03.337Z,7.05
2022-11-10T23:39:25.481Z,8.68
2022-11-10T23:44:47.149Z,11.13
2022-11-10T23:50:10.114Z,8.70
2022-11-10T23:55:39.899Z,8.82
